sensor_id;sensor_type;location;lat;lon;timestamp;P1;durP1;ratioP1;P2;durP2;ratioP2
35797;SDS011;21918;49.940;7.774;2022-09-09T00:01:37;1.50;;;1.27;;
35797;SDS011;21918;49.940;7.774;2022-09-09T00:04:15;1.65;;;0.90;;
35797;SDS011;21918;49.940;7.774;2022-09-09T00:06:50;3.60;;;1.48;;
35797;SDS011;21918;49.940;7.774;2022-09-09T00:09:24;1.80;;;1.00;;
35797;SDS011;21918;49.940;7.774;2022-09-09T00:11:54;3.05;;;1.15;;
35797;SDS011;21918;49.940;7.774;2022-09-09T00:14:31;2.55;;;1.48;;
35797;SDS011;21918;49.940;7.774;2022-09-09T00:17:06;0.90;;;0.80;;
35797;SDS011;21918;49.940;7.774;2022-09-09T00:19:38;1.67;;;0.90;;
35797;SDS011;21918;49.940;7.774;2022-09-09T00:22:14;1.02;;;0.90;;
35797;SDS011;21918;49.940;7.774;2022-09-09T00:24:43;2.53;;;0.88;;
35797;SDS011;21918;49.940;7.774;2022-09-09T00:27:14;3.75;;;1.38;;
35797;SDS011;21918;49.940;7.774;2022-09-09T00:29:45;3.33;;;1.30;;
35797;SDS011;21918;49.940;7.774;2022-09-09T00:32:24;1.98;;;1.27;;
35797;SDS011;21918;49.940;7.774;2022-09-09T00:35:02;1.75;;;0.95;;
35797;SDS011;21918;49.940;7.774;2022-09-09T00:37:40;2.15;;;1.05;;
35797;SDS011;21918;49.940;7.774;2022-09-09T00:40:15;2.72;;;1.30;;
35797;SDS011;21918;49.940;7.774;2022-09-09T00:42:48;2.15;;;1.23;;
35797;SDS011;21918;49.940;7.774;2022-09-09T00:45:35;0.80;;;0.77;;
35797;SDS011;21918;49.940;7.774;2022-09-09T00:48:13;1.23;;;0.70;;
35797;SDS011;21918;49.940;7.774;2022-09-09T00:50:45;0.80;;;0.80;;
35797;SDS011;21918;49.940;7.774;2022-09-09T00:53:23;0.90;;;0.90;;
35797;SDS011;21918;49.940;7.774;2022-09-09T00:56:00;2.08;;;1.08;;
35797;SDS011;21918;49.940;7.774;2022-09-09T00:58:35;2.08;;;1.10;;
35797;SDS011;21918;49.940;7.774;2022-09-09T01:01:02;3.08;;;0.90;;
35797;SDS011;21918;49.940;7.774;2022-09-09T01:03:35;1.08;;;0.98;;
35797;SDS011;21918;49.940;7.774;2022-09-09T01:06:11;0.95;;;0.95;;
35797;SDS011;21918;49.940;7.774;2022-09-09T01:08:44;3.30;;;1.02;;
35797;SDS011;21918;49.940;7.774;2022-09-09T01:11:20;1.10;;;1.00;;
35797;SDS011;21918;49.940;7.774;2022-09-09T01:13:50;2.63;;;1.10;;
35797;SDS011;21918;49.940;7.774;2022-09-09T01:16:23;3.50;;;1.10;;
35797;SDS011;21918;49.940;7.774;2022-09-09T01:18:52;2.88;;;1.00;;
35797;SDS011;21918;49.940;7.774;2022-09-09T01:21:22;4.13;;;1.05;;
35797;SDS011;21918;49.940;7.774;2022-09-09T01:24:09;0.70;;;0.70;;
35797;SDS011;21918;49.940;7.774;2022-09-09T01:26:46;1.55;;;0.85;;
35797;SDS011;21918;49.940;7.774;2022-09-09T01:29:17;2.75;;;1.02;;
35797;SDS011;21918;49.940;7.774;2022-09-09T01:31:51;2.70;;;0.80;;
35797;SDS011;21918;49.940;7.774;2022-09-09T01:34:20;1.52;;;0.80;;
35797;SDS011;21918;49.940;7.774;2022-09-09T01:36:49;1.23;;;1.10;;
35797;SDS011;21918;49.940;7.774;2022-09-09T01:39:19;0.65;;;0.60;;
35797;SDS011;21918;49.940;7.774;2022-09-09T01:41:48;2.67;;;1.00;;
35797;SDS011;21918;49.940;7.774;2022-09-09T01:44:15;2.78;;;1.10;;
35797;SDS011;21918;49.940;7.774;2022-09-09T01:46:43;1.40;;;0.55;;
35797;SDS011;21918;49.940;7.774;2022-09-09T01:49:12;0.90;;;0.70;;
35797;SDS011;21918;49.940;7.774;2022-09-09T01:51:39;2.60;;;1.38;;
35797;SDS011;21918;49.940;7.774;2022-09-09T01:54:08;2.58;;;0.85;;
35797;SDS011;21918;49.940;7.774;2022-09-09T01:56:37;4.60;;;1.17;;
35797;SDS011;21918;49.940;7.774;2022-09-09T01:59:12;2.03;;;1.10;;
35797;SDS011;21918;49.940;7.774;2022-09-09T02:01:57;0.70;;;0.70;;
35797;SDS011;21918;49.940;7.774;2022-09-09T02:04:36;1.25;;;0.88;;
35797;SDS011;21918;49.940;7.774;2022-09-09T02:07:06;3.85;;;0.90;;
35797;SDS011;21918;49.940;7.774;2022-09-09T02:09:41;1.65;;;1.17;;
35797;SDS011;21918;49.940;7.774;2022-09-09T02:12:11;1.77;;;0.82;;
35797;SDS011;21918;49.940;7.774;2022-09-09T02:14:46;2.13;;;1.08;;
35797;SDS011;21918;49.940;7.774;2022-09-09T02:17:21;1.27;;;1.00;;
35797;SDS011;21918;49.940;7.774;2022-09-09T02:19:53;1.25;;;0.70;;
35797;SDS011;21918;49.940;7.774;2022-09-09T02:22:24;4.13;;;1.70;;
35797;SDS011;21918;49.940;7.774;2022-09-09T02:24:53;4.22;;;1.13;;
35797;SDS011;21918;49.940;7.774;2022-09-09T02:27:24;2.88;;;0.80;;
35797;SDS011;21918;49.940;7.774;2022-09-09T02:29:52;4.72;;;1.20;;
35797;SDS011;21918;49.940;7.774;2022-09-09T02:32:23;2.08;;;1.27;;
35797;SDS011;21918;49.940;7.774;2022-09-09T02:34:52;2.08;;;1.00;;
35797;SDS011;21918;49.940;7.774;2022-09-09T02:37:23;3.05;;;0.68;;
35797;SDS011;21918;49.940;7.774;2022-09-09T02:39:54;2.00;;;0.95;;
35797;SDS011;21918;49.940;7.774;2022-09-09T02:42:20;2.58;;;1.17;;
35797;SDS011;21918;49.940;7.774;2022-09-09T02:44:48;1.85;;;0.80;;
35797;SDS011;21918;49.940;7.774;2022-09-09T02:47:19;7.93;;;1.10;;
35797;SDS011;21918;49.940;7.774;2022-09-09T02:49:55;1.15;;;1.00;;
35797;SDS011;21918;49.940;7.774;2022-09-09T02:52:47;0.95;;;0.70;;
35797;SDS011;21918;49.940;7.774;2022-09-09T02:55:24;2.10;;;1.08;;
35797;SDS011;21918;49.940;7.774;2022-09-09T02:58:01;1.48;;;0.88;;
35797;SDS011;21918;49.940;7.774;2022-09-09T03:00:32;1.13;;;1.05;;
35797;SDS011;21918;49.940;7.774;2022-09-09T03:03:02;2.78;;;1.27;;
35797;SDS011;21918;49.940;7.774;2022-09-09T03:05:29;3.78;;;0.98;;
35797;SDS011;21918;49.940;7.774;2022-09-09T03:07:56;1.65;;;1.08;;
35797;SDS011;21918;49.940;7.774;2022-09-09T03:10:23;1.20;;;0.85;;
35797;SDS011;21918;49.940;7.774;2022-09-09T03:12:50;3.45;;;0.90;;
35797;SDS011;21918;49.940;7.774;2022-09-09T03:15:17;1.02;;;0.80;;
35797;SDS011;21918;49.940;7.774;2022-09-09T03:17:43;2.40;;;1.23;;
35797;SDS011;21918;49.940;7.774;2022-09-09T03:20:11;2.00;;;0.70;;
35797;SDS011;21918;49.940;7.774;2022-09-09T03:22:38;3.85;;;1.23;;
35797;SDS011;21918;49.940;7.774;2022-09-09T03:25:05;1.08;;;0.98;;
35797;SDS011;21918;49.940;7.774;2022-09-09T03:27:32;1.10;;;0.75;;
35797;SDS011;21918;49.940;7.774;2022-09-09T03:29:59;1.83;;;1.30;;
35797;SDS011;21918;49.940;7.774;2022-09-09T03:32:28;1.23;;;1.05;;
35797;SDS011;21918;49.940;7.774;2022-09-09T03:34:56;2.95;;;1.08;;
35797;SDS011;21918;49.940;7.774;2022-09-09T03:37:24;1.13;;;0.90;;
35797;SDS011;21918;49.940;7.774;2022-09-09T03:39:51;1.95;;;1.05;;
35797;SDS011;21918;49.940;7.774;2022-09-09T03:42:19;1.55;;;1.08;;
35797;SDS011;21918;49.940;7.774;2022-09-09T03:44:46;4.63;;;1.20;;
35797;SDS011;21918;49.940;7.774;2022-09-09T03:47:15;5.28;;;0.90;;
35797;SDS011;21918;49.940;7.774;2022-09-09T03:49:43;1.98;;;1.25;;
35797;SDS011;21918;49.940;7.774;2022-09-09T03:52:09;2.45;;;1.50;;
35797;SDS011;21918;49.940;7.774;2022-09-09T03:54:37;2.95;;;1.20;;
35797;SDS011;21918;49.940;7.774;2022-09-09T03:57:04;3.15;;;1.48;;
35797;SDS011;21918;49.940;7.774;2022-09-09T03:59:31;3.75;;;1.23;;
35797;SDS011;21918;49.940;7.774;2022-09-09T04:01:57;3.97;;;1.60;;
35797;SDS011;21918;49.940;7.774;2022-09-09T04:04:24;2.78;;;1.40;;
35797;SDS011;21918;49.940;7.774;2022-09-09T04:06:53;3.05;;;1.17;;
35797;SDS011;21918;49.940;7.774;2022-09-09T04:09:20;1.25;;;1.00;;
35797;SDS011;21918;49.940;7.774;2022-09-09T04:11:47;2.10;;;1.10;;
35797;SDS011;21918;49.940;7.774;2022-09-09T04:14:14;1.60;;;1.10;;
35797;SDS011;21918;49.940;7.774;2022-09-09T04:16:42;0.73;;;0.73;;
35797;SDS011;21918;49.940;7.774;2022-09-09T04:19:09;2.95;;;1.20;;
35797;SDS011;21918;49.940;7.774;2022-09-09T04:21:37;1.27;;;1.05;;
35797;SDS011;21918;49.940;7.774;2022-09-09T04:24:04;4.22;;;0.90;;
35797;SDS011;21918;49.940;7.774;2022-09-09T04:26:31;1.20;;;1.08;;
35797;SDS011;21918;49.940;7.774;2022-09-09T04:28:59;1.52;;;1.42;;
35797;SDS011;21918;49.940;7.774;2022-09-09T04:31:26;1.70;;;1.23;;
35797;SDS011;21918;49.940;7.774;2022-09-09T04:33:53;2.75;;;1.05;;
35797;SDS011;21918;49.940;7.774;2022-09-09T04:36:19;0.80;;;0.75;;
35797;SDS011;21918;49.940;7.774;2022-09-09T04:38:46;1.52;;;1.20;;
35797;SDS011;21918;49.940;7.774;2022-09-09T04:41:14;1.70;;;1.60;;
35797;SDS011;21918;49.940;7.774;2022-09-09T04:43:41;1.25;;;0.90;;
35797;SDS011;21918;49.940;7.774;2022-09-09T04:46:12;1.20;;;0.93;;
35797;SDS011;21918;49.940;7.774;2022-09-09T04:48:41;1.58;;;1.05;;
35797;SDS011;21918;49.940;7.774;2022-09-09T04:51:08;1.02;;;0.90;;
35797;SDS011;21918;49.940;7.774;2022-09-09T04:53:38;1.63;;;1.05;;
35797;SDS011;21918;49.940;7.774;2022-09-09T04:56:06;1.42;;;1.02;;
35797;SDS011;21918;49.940;7.774;2022-09-09T04:58:35;2.40;;;1.00;;
35797;SDS011;21918;49.940;7.774;2022-09-09T05:01:02;1.35;;;1.08;;
35797;SDS011;21918;49.940;7.774;2022-09-09T05:03:31;0.95;;;0.90;;
35797;SDS011;21918;49.940;7.774;2022-09-09T05:06:02;1.92;;;1.10;;
35797;SDS011;21918;49.940;7.774;2022-09-09T05:08:30;1.13;;;1.00;;
35797;SDS011;21918;49.940;7.774;2022-09-09T05:10:56;2.25;;;0.82;;
35797;SDS011;21918;49.940;7.774;2022-09-09T05:13:24;1.42;;;1.00;;
35797;SDS011;21918;49.940;7.774;2022-09-09T05:15:51;1.25;;;1.10;;
35797;SDS011;21918;49.940;7.774;2022-09-09T05:18:18;2.58;;;1.10;;
35797;SDS011;21918;49.940;7.774;2022-09-09T05:20:48;1.42;;;1.20;;
35797;SDS011;21918;49.940;7.774;2022-09-09T05:23:16;1.27;;;0.90;;
35797;SDS011;21918;49.940;7.774;2022-09-09T05:25:42;2.15;;;0.70;;
35797;SDS011;21918;49.940;7.774;2022-09-09T05:28:10;1.25;;;1.05;;
35797;SDS011;21918;49.940;7.774;2022-09-09T05:30:37;0.73;;;0.73;;
35797;SDS011;21918;49.940;7.774;2022-09-09T05:33:03;1.25;;;0.90;;
35797;SDS011;21918;49.940;7.774;2022-09-09T05:35:31;0.95;;;0.93;;
35797;SDS011;21918;49.940;7.774;2022-09-09T05:38:00;1.48;;;1.00;;
35797;SDS011;21918;49.940;7.774;2022-09-09T05:40:26;2.13;;;1.15;;
35797;SDS011;21918;49.940;7.774;2022-09-09T05:42:53;1.73;;;1.33;;
35797;SDS011;21918;49.940;7.774;2022-09-09T05:45:20;0.70;;;0.70;;
35797;SDS011;21918;49.940;7.774;2022-09-09T05:47:50;3.13;;;1.45;;
35797;SDS011;21918;49.940;7.774;2022-09-09T05:50:18;2.65;;;1.40;;
35797;SDS011;21918;49.940;7.774;2022-09-09T05:52:45;2.00;;;1.02;;
35797;SDS011;21918;49.940;7.774;2022-09-09T05:55:16;1.05;;;0.80;;
35797;SDS011;21918;49.940;7.774;2022-09-09T05:57:47;1.05;;;0.98;;
35797;SDS011;21918;49.940;7.774;2022-09-09T06:00:14;0.80;;;0.80;;
35797;SDS011;21918;49.940;7.774;2022-09-09T06:02:41;1.70;;;0.70;;
35797;SDS011;21918;49.940;7.774;2022-09-09T06:05:08;1.38;;;1.02;;
35797;SDS011;21918;49.940;7.774;2022-09-09T06:07:35;1.33;;;1.23;;
35797;SDS011;21918;49.940;7.774;2022-09-09T06:10:02;2.80;;;1.30;;
35797;SDS011;21918;49.940;7.774;2022-09-09T06:12:31;2.78;;;1.30;;
35797;SDS011;21918;49.940;7.774;2022-09-09T06:14:58;3.45;;;1.58;;
35797;SDS011;21918;49.940;7.774;2022-09-09T06:17:24;1.35;;;0.75;;
35797;SDS011;21918;49.940;7.774;2022-09-09T06:19:51;0.85;;;0.82;;
35797;SDS011;21918;49.940;7.774;2022-09-09T06:22:18;3.13;;;0.90;;
35797;SDS011;21918;49.940;7.774;2022-09-09T06:24:45;2.90;;;0.98;;
35797;SDS011;21918;49.940;7.774;2022-09-09T06:27:12;3.53;;;1.40;;
35797;SDS011;21918;49.940;7.774;2022-09-09T06:29:40;2.42;;;1.20;;
35797;SDS011;21918;49.940;7.774;2022-09-09T06:32:07;2.70;;;1.30;;
35797;SDS011;21918;49.940;7.774;2022-09-09T06:34:34;2.78;;;1.00;;
35797;SDS011;21918;49.940;7.774;2022-09-09T06:37:01;2.20;;;1.52;;
35797;SDS011;21918;49.940;7.774;2022-09-09T06:39:28;4.00;;;1.70;;
35797;SDS011;21918;49.940;7.774;2022-09-09T06:41:54;2.95;;;1.30;;
35797;SDS011;21918;49.940;7.774;2022-09-09T06:44:23;2.75;;;1.10;;
35797;SDS011;21918;49.940;7.774;2022-09-09T06:46:53;2.80;;;1.42;;
35797;SDS011;21918;49.940;7.774;2022-09-09T06:49:20;3.80;;;1.17;;
35797;SDS011;21918;49.940;7.774;2022-09-09T06:51:49;1.63;;;1.40;;
35797;SDS011;21918;49.940;7.774;2022-09-09T06:54:26;3.33;;;1.17;;
35797;SDS011;21918;49.940;7.774;2022-09-09T06:56:55;7.15;;;2.28;;
35797;SDS011;21918;49.940;7.774;2022-09-09T06:59:22;4.63;;;2.58;;
35797;SDS011;21918;49.940;7.774;2022-09-09T07:01:48;6.05;;;2.85;;
35797;SDS011;21918;49.940;7.774;2022-09-09T07:04:18;4.03;;;2.20;;
35797;SDS011;21918;49.940;7.774;2022-09-09T07:06:45;3.17;;;2.05;;
35797;SDS011;21918;49.940;7.774;2022-09-09T07:09:13;4.35;;;2.50;;
35797;SDS011;21918;49.940;7.774;2022-09-09T07:11:41;5.72;;;2.67;;
35797;SDS011;21918;49.940;7.774;2022-09-09T07:14:09;7.22;;;3.30;;
35797;SDS011;21918;49.940;7.774;2022-09-09T07:16:38;3.25;;;2.58;;
35797;SDS011;21918;49.940;7.774;2022-09-09T07:19:05;4.13;;;3.03;;
35797;SDS011;21918;49.940;7.774;2022-09-09T07:21:33;4.32;;;3.05;;
35797;SDS011;21918;49.940;7.774;2022-09-09T07:24:01;5.13;;;3.08;;
35797;SDS011;21918;49.940;7.774;2022-09-09T07:26:30;8.07;;;3.13;;
35797;SDS011;21918;49.940;7.774;2022-09-09T07:28:57;5.35;;;2.63;;
35797;SDS011;21918;49.940;7.774;2022-09-09T07:31:24;7.43;;;3.78;;
35797;SDS011;21918;49.940;7.774;2022-09-09T07:33:52;5.50;;;3.47;;
35797;SDS011;21918;49.940;7.774;2022-09-09T07:36:20;11.45;;;3.55;;
35797;SDS011;21918;49.940;7.774;2022-09-09T07:38:50;3.55;;;2.72;;
35797;SDS011;21918;49.940;7.774;2022-09-09T07:41:19;3.60;;;2.85;;
35797;SDS011;21918;49.940;7.774;2022-09-09T07:43:47;6.60;;;2.85;;
35797;SDS011;21918;49.940;7.774;2022-09-09T07:46:16;4.60;;;2.72;;
35797;SDS011;21918;49.940;7.774;2022-09-09T07:48:53;4.10;;;2.90;;
35797;SDS011;21918;49.940;7.774;2022-09-09T07:51:22;3.17;;;2.80;;
35797;SDS011;21918;49.940;7.774;2022-09-09T07:53:53;2.95;;;2.45;;
35797;SDS011;21918;49.940;7.774;2022-09-09T07:56:22;5.45;;;3.38;;
35797;SDS011;21918;49.940;7.774;2022-09-09T07:58:49;6.03;;;3.20;;
35797;SDS011;21918;49.940;7.774;2022-09-09T08:01:19;4.78;;;3.42;;
35797;SDS011;21918;49.940;7.774;2022-09-09T08:03:52;5.43;;;3.35;;
35797;SDS011;21918;49.940;7.774;2022-09-09T08:06:20;7.47;;;3.22;;
35797;SDS011;21918;49.940;7.774;2022-09-09T08:08:49;5.85;;;3.95;;
35797;SDS011;21918;49.940;7.774;2022-09-09T08:11:18;6.80;;;3.13;;
35797;SDS011;21918;49.940;7.774;2022-09-09T08:13:45;6.38;;;2.85;;
35797;SDS011;21918;49.940;7.774;2022-09-09T08:16:13;11.00;;;2.72;;
35797;SDS011;21918;49.940;7.774;2022-09-09T08:18:41;3.70;;;2.47;;
35797;SDS011;21918;49.940;7.774;2022-09-09T08:21:09;11.50;;;2.45;;
35797;SDS011;21918;49.940;7.774;2022-09-09T08:23:38;4.57;;;2.47;;
35797;SDS011;21918;49.940;7.774;2022-09-09T08:26:07;7.75;;;2.50;;
35797;SDS011;21918;49.940;7.774;2022-09-09T08:28:37;4.30;;;2.75;;
35797;SDS011;21918;49.940;7.774;2022-09-09T08:31:05;4.43;;;2.83;;
35797;SDS011;21918;49.940;7.774;2022-09-09T08:33:36;4.35;;;2.45;;
35797;SDS011;21918;49.940;7.774;2022-09-09T08:36:04;7.45;;;3.05;;
35797;SDS011;21918;49.940;7.774;2022-09-09T08:38:31;5.00;;;2.08;;
35797;SDS011;21918;49.940;7.774;2022-09-09T08:41:00;3.70;;;2.03;;
35797;SDS011;21918;49.940;7.774;2022-09-09T08:43:37;2.00;;;1.90;;
35797;SDS011;21918;49.940;7.774;2022-09-09T08:46:06;8.77;;;2.80;;
35797;SDS011;21918;49.940;7.774;2022-09-09T08:48:42;4.43;;;2.95;;
35797;SDS011;21918;49.940;7.774;2022-09-09T08:51:17;5.25;;;2.70;;
35797;SDS011;21918;49.940;7.774;2022-09-09T08:53:46;3.10;;;2.25;;
35797;SDS011;21918;49.940;7.774;2022-09-09T08:56:16;6.35;;;3.03;;
35797;SDS011;21918;49.940;7.774;2022-09-09T08:58:47;4.22;;;3.15;;
35797;SDS011;21918;49.940;7.774;2022-09-09T09:01:27;4.28;;;2.20;;
35797;SDS011;21918;49.940;7.774;2022-09-09T09:04:07;3.25;;;2.30;;
35797;SDS011;21918;49.940;7.774;2022-09-09T09:06:48;6.32;;;2.83;;
35797;SDS011;21918;49.940;7.774;2022-09-09T09:09:21;4.70;;;2.63;;
35797;SDS011;21918;49.940;7.774;2022-09-09T09:11:53;6.38;;;2.70;;
35797;SDS011;21918;49.940;7.774;2022-09-09T09:14:27;4.63;;;2.85;;
35797;SDS011;21918;49.940;7.774;2022-09-09T09:16:56;3.22;;;2.47;;
35797;SDS011;21918;49.940;7.774;2022-09-09T09:19:25;2.70;;;2.20;;
35797;SDS011;21918;49.940;7.774;2022-09-09T09:21:54;4.95;;;1.67;;
35797;SDS011;21918;49.940;7.774;2022-09-09T09:24:29;3.83;;;1.95;;
35797;SDS011;21918;49.940;7.774;2022-09-09T09:27:07;2.70;;;1.98;;
35797;SDS011;21918;49.940;7.774;2022-09-09T09:29:40;4.88;;;1.90;;
35797;SDS011;21918;49.940;7.774;2022-09-09T09:32:09;9.80;;;2.88;;
35797;SDS011;21918;49.940;7.774;2022-09-09T09:34:40;2.15;;;1.58;;
35797;SDS011;21918;49.940;7.774;2022-09-09T09:37:11;4.78;;;1.70;;
35797;SDS011;21918;49.940;7.774;2022-09-09T09:39:44;3.47;;;2.30;;
35797;SDS011;21918;49.940;7.774;2022-09-09T09:42:12;4.25;;;1.98;;
35797;SDS011;21918;49.940;7.774;2022-09-09T09:44:41;4.40;;;2.25;;
35797;SDS011;21918;49.940;7.774;2022-09-09T09:47:08;4.25;;;2.33;;
35797;SDS011;21918;49.940;7.774;2022-09-09T09:49:38;3.67;;;2.05;;
35797;SDS011;21918;49.940;7.774;2022-09-09T09:52:05;7.55;;;2.75;;
35797;SDS011;21918;49.940;7.774;2022-09-09T09:54:33;5.10;;;2.13;;
35797;SDS011;21918;49.940;7.774;2022-09-09T09:57:08;3.42;;;2.72;;
35797;SDS011;21918;49.940;7.774;2022-09-09T09:59:36;3.80;;;1.85;;
35797;SDS011;21918;49.940;7.774;2022-09-09T10:02:20;2.95;;;1.80;;
35797;SDS011;21918;49.940;7.774;2022-09-09T10:04:59;5.20;;;1.70;;
35797;SDS011;21918;49.940;7.774;2022-09-09T10:07:27;3.03;;;1.25;;
35797;SDS011;21918;49.940;7.774;2022-09-09T10:09:55;1.98;;;1.60;;
35797;SDS011;21918;49.940;7.774;2022-09-09T10:12:26;9.82;;;2.45;;
35797;SDS011;21918;49.940;7.774;2022-09-09T10:15:01;4.03;;;1.08;;
35797;SDS011;21918;49.940;7.774;2022-09-09T10:17:34;5.55;;;0.90;;
35797;SDS011;21918;49.940;7.774;2022-09-09T10:20:15;5.70;;;1.98;;
35797;SDS011;21918;49.940;7.774;2022-09-09T10:22:51;2.03;;;1.17;;
35797;SDS011;21918;49.940;7.774;2022-09-09T10:25:29;4.03;;;1.95;;
35797;SDS011;21918;49.940;7.774;2022-09-09T10:28:12;5.10;;;1.33;;
35797;SDS011;21918;49.940;7.774;2022-09-09T10:30:56;4.30;;;1.48;;
35797;SDS011;21918;49.940;7.774;2022-09-09T10:33:35;4.80;;;1.45;;
35797;SDS011;21918;49.940;7.774;2022-09-09T10:36:09;4.35;;;1.83;;
35797;SDS011;21918;49.940;7.774;2022-09-09T10:38:40;1.90;;;1.02;;
35797;SDS011;21918;49.940;7.774;2022-09-09T10:41:13;3.05;;;1.20;;
35797;SDS011;21918;49.940;7.774;2022-09-09T10:46:52;3.25;;;1.38;;
35797;SDS011;21918;49.940;7.774;2022-09-09T10:49:47;2.60;;;1.35;;
35797;SDS011;21918;49.940;7.774;2022-09-09T10:52:28;2.03;;;1.30;;
35797;SDS011;21918;49.940;7.774;2022-09-09T10:55:02;5.40;;;1.70;;
35797;SDS011;21918;49.940;7.774;2022-09-09T10:57:36;2.15;;;1.15;;
35797;SDS011;21918;49.940;7.774;2022-09-09T11:00:13;5.07;;;1.30;;
35797;SDS011;21918;49.940;7.774;2022-09-09T11:02:42;4.90;;;1.02;;
35797;SDS011;21918;49.940;7.774;2022-09-09T11:05:14;5.90;;;1.60;;
35797;SDS011;21918;49.940;7.774;2022-09-09T11:07:46;4.38;;;1.45;;
35797;SDS011;21918;49.940;7.774;2022-09-09T11:10:19;2.90;;;1.08;;
35797;SDS011;21918;49.940;7.774;2022-09-09T11:12:51;5.68;;;1.38;;
35797;SDS011;21918;49.940;7.774;2022-09-09T11:15:25;4.43;;;1.27;;
35797;SDS011;21918;49.940;7.774;2022-09-09T11:18:01;3.17;;;1.17;;
35797;SDS011;21918;49.940;7.774;2022-09-09T11:20:32;2.67;;;1.13;;
35797;SDS011;21918;49.940;7.774;2022-09-09T11:23:00;3.13;;;1.48;;
35797;SDS011;21918;49.940;7.774;2022-09-09T11:25:32;2.45;;;1.27;;
35797;SDS011;21918;49.940;7.774;2022-09-09T11:28:07;6.95;;;1.85;;
35797;SDS011;21918;49.940;7.774;2022-09-09T11:30:49;5.07;;;2.13;;
35797;SDS011;21918;49.940;7.774;2022-09-09T11:36:32;5.32;;;1.80;;
35797;SDS011;21918;49.940;7.774;2022-09-09T11:39:17;4.15;;;1.27;;
35797;SDS011;21918;49.940;7.774;2022-09-09T11:42:06;5.22;;;1.33;;
35797;SDS011;21918;49.940;7.774;2022-09-09T11:44:34;3.33;;;1.00;;
35797;SDS011;21918;49.940;7.774;2022-09-09T11:47:00;6.82;;;1.17;;
35797;SDS011;21918;49.940;7.774;2022-09-09T11:49:28;4.22;;;1.00;;
35797;SDS011;21918;49.940;7.774;2022-09-09T11:52:11;5.53;;;1.13;;
35797;SDS011;21918;49.940;7.774;2022-09-09T11:54:44;14.18;;;2.50;;
35797;SDS011;21918;49.940;7.774;2022-09-09T11:57:17;15.18;;;3.25;;
35797;SDS011;21918;49.940;7.774;2022-09-09T11:59:51;5.15;;;2.17;;
35797;SDS011;21918;49.940;7.774;2022-09-09T12:02:19;3.95;;;1.73;;
35797;SDS011;21918;49.940;7.774;2022-09-09T12:04:54;3.10;;;1.60;;
35797;SDS011;21918;49.940;7.774;2022-09-09T12:07:29;2.92;;;1.17;;
35797;SDS011;21918;49.940;7.774;2022-09-09T12:09:59;5.05;;;1.55;;
35797;SDS011;21918;49.940;7.774;2022-09-09T12:12:30;2.75;;;1.63;;
35797;SDS011;21918;49.940;7.774;2022-09-09T12:14:59;8.73;;;2.30;;
35797;SDS011;21918;49.940;7.774;2022-09-09T12:17:29;1.27;;;1.05;;
35797;SDS011;21918;49.940;7.774;2022-09-09T12:20:03;3.60;;;1.33;;
35797;SDS011;21918;49.940;7.774;2022-09-09T12:22:37;13.52;;;2.78;;
35797;SDS011;21918;49.940;7.774;2022-09-09T12:25:19;7.60;;;2.58;;
35797;SDS011;21918;49.940;7.774;2022-09-09T12:27:58;25.35;;;4.68;;
35797;SDS011;21918;49.940;7.774;2022-09-09T12:30:32;4.90;;;2.15;;
35797;SDS011;21918;49.940;7.774;2022-09-09T12:33:08;27.80;;;6.93;;
35797;SDS011;21918;49.940;7.774;2022-09-09T12:35:38;10.63;;;2.08;;
35797;SDS011;21918;49.940;7.774;2022-09-09T12:38:11;2.30;;;1.20;;
35797;SDS011;21918;49.940;7.774;2022-09-09T12:40:54;4.50;;;1.15;;
35797;SDS011;21918;49.940;7.774;2022-09-09T12:43:23;3.38;;;1.42;;
35797;SDS011;21918;49.940;7.774;2022-09-09T12:45:51;1.58;;;0.70;;
35797;SDS011;21918;49.940;7.774;2022-09-09T12:48:24;19.00;;;4.85;;
35797;SDS011;21918;49.940;7.774;2022-09-09T12:50:58;3.20;;;0.82;;
35797;SDS011;21918;49.940;7.774;2022-09-09T12:53:28;4.72;;;1.90;;
35797;SDS011;21918;49.940;7.774;2022-09-09T12:55:59;6.43;;;1.70;;
35797;SDS011;21918;49.940;7.774;2022-09-09T12:58:28;7.18;;;0.93;;
35797;SDS011;21918;49.940;7.774;2022-09-09T13:00:58;1.33;;;1.17;;
35797;SDS011;21918;49.940;7.774;2022-09-09T13:03:25;3.60;;;1.38;;
35797;SDS011;21918;49.940;7.774;2022-09-09T13:05:53;12.68;;;2.95;;
35797;SDS011;21918;49.940;7.774;2022-09-09T13:08:26;4.43;;;1.27;;
35797;SDS011;21918;49.940;7.774;2022-09-09T13:10:53;7.10;;;1.65;;
35797;SDS011;21918;49.940;7.774;2022-09-09T13:13:26;9.07;;;1.73;;
35797;SDS011;21918;49.940;7.774;2022-09-09T13:15:56;2.88;;;1.02;;
35797;SDS011;21918;49.940;7.774;2022-09-09T13:18:24;4.50;;;1.63;;
35797;SDS011;21918;49.940;7.774;2022-09-09T13:20:53;6.80;;;1.35;;
35797;SDS011;21918;49.940;7.774;2022-09-09T13:23:21;2.13;;;0.85;;
35797;SDS011;21918;49.940;7.774;2022-09-09T13:25:56;1.80;;;1.00;;
35797;SDS011;21918;49.940;7.774;2022-09-09T13:28:24;4.35;;;1.40;;
35797;SDS011;21918;49.940;7.774;2022-09-09T13:30:56;6.00;;;1.35;;
35797;SDS011;21918;49.940;7.774;2022-09-09T13:33:29;2.88;;;0.90;;
35797;SDS011;21918;49.940;7.774;2022-09-09T13:35:58;3.20;;;1.33;;
35797;SDS011;21918;49.940;7.774;2022-09-09T13:38:28;2.08;;;0.90;;
35797;SDS011;21918;49.940;7.774;2022-09-09T13:40:59;3.20;;;1.05;;
35797;SDS011;21918;49.940;7.774;2022-09-09T13:43:29;1.35;;;0.70;;
35797;SDS011;21918;49.940;7.774;2022-09-09T13:46:00;1.80;;;1.10;;
35797;SDS011;21918;49.940;7.774;2022-09-09T13:48:28;4.50;;;1.05;;
35797;SDS011;21918;49.940;7.774;2022-09-09T13:50:57;3.47;;;1.60;;
35797;SDS011;21918;49.940;7.774;2022-09-09T13:53:25;4.00;;;1.45;;
35797;SDS011;21918;49.940;7.774;2022-09-09T13:55:52;5.63;;;0.93;;
35797;SDS011;21918;49.940;7.774;2022-09-09T13:58:20;3.33;;;1.38;;
35797;SDS011;21918;49.940;7.774;2022-09-09T14:00:47;1.50;;;0.82;;
35797;SDS011;21918;49.940;7.774;2022-09-09T14:03:15;5.65;;;1.02;;
35797;SDS011;21918;49.940;7.774;2022-09-09T14:05:41;1.77;;;0.85;;
35797;SDS011;21918;49.940;7.774;2022-09-09T14:08:11;2.22;;;1.00;;
35797;SDS011;21918;49.940;7.774;2022-09-09T14:10:46;3.20;;;0.90;;
35797;SDS011;21918;49.940;7.774;2022-09-09T14:13:12;1.33;;;0.85;;
35797;SDS011;21918;49.940;7.774;2022-09-09T14:15:42;1.50;;;1.00;;
35797;SDS011;21918;49.940;7.774;2022-09-09T14:18:09;2.38;;;1.17;;
35797;SDS011;21918;49.940;7.774;2022-09-09T14:20:37;3.80;;;0.70;;
35797;SDS011;21918;49.940;7.774;2022-09-09T14:23:04;3.92;;;1.23;;
35797;SDS011;21918;49.940;7.774;2022-09-09T14:25:30;1.58;;;0.90;;
35797;SDS011;21918;49.940;7.774;2022-09-09T14:27:58;1.25;;;1.15;;
35797;SDS011;21918;49.940;7.774;2022-09-09T14:30:25;3.78;;;0.77;;
35797;SDS011;21918;49.940;7.774;2022-09-09T14:32:53;5.25;;;1.40;;
35797;SDS011;21918;49.940;7.774;2022-09-09T14:35:19;2.65;;;1.15;;
35797;SDS011;21918;49.940;7.774;2022-09-09T14:37:47;1.45;;;0.90;;
35797;SDS011;21918;49.940;7.774;2022-09-09T14:40:13;0.93;;;0.75;;
35797;SDS011;21918;49.940;7.774;2022-09-09T14:42:41;3.70;;;0.95;;
35797;SDS011;21918;49.940;7.774;2022-09-09T14:45:08;0.80;;;0.70;;
35797;SDS011;21918;49.940;7.774;2022-09-09T14:47:35;2.67;;;0.60;;
35797;SDS011;21918;49.940;7.774;2022-09-09T14:50:05;1.58;;;1.00;;
35797;SDS011;21918;49.940;7.774;2022-09-09T14:52:32;1.25;;;1.13;;
35797;SDS011;21918;49.940;7.774;2022-09-09T14:54:59;0.93;;;0.70;;
35797;SDS011;21918;49.940;7.774;2022-09-09T14:57:26;2.63;;;0.85;;
35797;SDS011;21918;49.940;7.774;2022-09-09T14:59:53;4.35;;;0.80;;
35797;SDS011;21918;49.940;7.774;2022-09-09T15:02:19;3.08;;;0.80;;
35797;SDS011;21918;49.940;7.774;2022-09-09T15:04:46;1.27;;;0.55;;
35797;SDS011;21918;49.940;7.774;2022-09-09T15:07:16;1.27;;;0.70;;
35797;SDS011;21918;49.940;7.774;2022-09-09T15:09:44;1.58;;;0.80;;
35797;SDS011;21918;49.940;7.774;2022-09-09T15:12:12;1.08;;;0.70;;
35797;SDS011;21918;49.940;7.774;2022-09-09T15:14:40;1.90;;;0.80;;